sensor_id;sensor_type;location;lat;lon;timestamp;P1;durP1;ratioP1;P2;durP2;ratioP2
75837;SDS011;64480;52.040;113.502;2023-05-07T00:03:33;9.68;;;5.80;;
75837;SDS011;64480;52.040;113.502;2023-05-07T00:06:37;7.78;;;4.75;;
75837;SDS011;64480;52.040;113.502;2023-05-07T00:09:41;10.98;;;4.68;;
75837;SDS011;64480;52.040;113.502;2023-05-07T00:12:44;7.47;;;4.30;;
75837;SDS011;64480;52.040;113.502;2023-05-07T00:15:48;7.18;;;4.10;;
75837;SDS011;64480;52.040;113.502;2023-05-07T00:18:51;9.00;;;4.03;;
75837;SDS011;64480;52.040;113.502;2023-05-07T00:21:55;13.10;;;5.40;;
75837;SDS011;64480;52.040;113.502;2023-05-07T00:24:59;15.38;;;5.47;;
75837;SDS011;64480;52.040;113.502;2023-05-07T00:28:02;15.50;;;4.72;;
75837;SDS011;64480;52.040;113.502;2023-05-07T00:31:06;11.43;;;5.28;;
75837;SDS011;64480;52.040;113.502;2023-05-07T00:34:09;23.08;;;4.88;;
75837;SDS011;64480;52.040;113.502;2023-05-07T00:37:12;13.60;;;6.18;;
75837;SDS011;64480;52.040;113.502;2023-05-07T00:40:18;12.80;;;5.07;;
75837;SDS011;64480;52.040;113.502;2023-05-07T00:43:21;13.30;;;5.13;;
75837;SDS011;64480;52.040;113.502;2023-05-07T00:46:25;15.30;;;5.78;;
75837;SDS011;64480;52.040;113.502;2023-05-07T00:49:38;31.65;;;6.43;;
75837;SDS011;64480;52.040;113.502;2023-05-07T00:52:45;15.27;;;5.13;;
75837;SDS011;64480;52.040;113.502;2023-05-07T00:55:49;8.88;;;5.00;;
75837;SDS011;64480;52.040;113.502;2023-05-07T00:58:53;11.30;;;5.03;;
75837;SDS011;64480;52.040;113.502;2023-05-07T01:01:57;12.75;;;4.18;;
75837;SDS011;64480;52.040;113.502;2023-05-07T01:05:01;9.40;;;4.80;;
75837;SDS011;64480;52.040;113.502;2023-05-07T01:08:08;12.45;;;6.50;;
75837;SDS011;64480;52.040;113.502;2023-05-07T01:11:12;11.70;;;5.30;;
75837;SDS011;64480;52.040;113.502;2023-05-07T01:14:17;28.40;;;6.00;;
75837;SDS011;64480;52.040;113.502;2023-05-07T01:17:21;14.68;;;5.43;;
75837;SDS011;64480;52.040;113.502;2023-05-07T01:20:25;9.60;;;4.65;;
75837;SDS011;64480;52.040;113.502;2023-05-07T01:23:30;15.30;;;5.80;;
75837;SDS011;64480;52.040;113.502;2023-05-07T01:26:34;9.95;;;6.07;;
75837;SDS011;64480;52.040;113.502;2023-05-07T01:29:37;11.73;;;7.22;;
75837;SDS011;64480;52.040;113.502;2023-05-07T01:32:46;15.63;;;7.47;;
75837;SDS011;64480;52.040;113.502;2023-05-07T01:35:54;10.90;;;6.65;;
75837;SDS011;64480;52.040;113.502;2023-05-07T01:38:58;13.88;;;6.57;;
75837;SDS011;64480;52.040;113.502;2023-05-07T01:42:02;28.98;;;8.25;;
75837;SDS011;64480;52.040;113.502;2023-05-07T01:45:06;20.83;;;9.93;;
75837;SDS011;64480;52.040;113.502;2023-05-07T01:48:09;16.08;;;8.05;;
75837;SDS011;64480;52.040;113.502;2023-05-07T01:54:46;17.08;;;6.90;;
75837;SDS011;64480;52.040;113.502;2023-05-07T01:57:49;18.52;;;8.13;;
75837;SDS011;64480;52.040;113.502;2023-05-07T02:00:58;19.65;;;7.63;;
75837;SDS011;64480;52.040;113.502;2023-05-07T02:04:03;27.30;;;9.57;;
75837;SDS011;64480;52.040;113.502;2023-05-07T02:07:07;16.55;;;8.65;;
75837;SDS011;64480;52.040;113.502;2023-05-07T02:10:11;10.85;;;7.03;;
75837;SDS011;64480;52.040;113.502;2023-05-07T02:13:17;17.88;;;7.07;;
75837;SDS011;64480;52.040;113.502;2023-05-07T02:16:22;13.90;;;7.07;;
75837;SDS011;64480;52.040;113.502;2023-05-07T02:19:26;16.30;;;7.85;;
75837;SDS011;64480;52.040;113.502;2023-05-07T02:22:30;14.30;;;6.93;;
75837;SDS011;64480;52.040;113.502;2023-05-07T02:25:33;15.57;;;6.50;;
75837;SDS011;64480;52.040;113.502;2023-05-07T02:28:37;15.85;;;7.25;;
75837;SDS011;64480;52.040;113.502;2023-05-07T02:31:44;17.15;;;7.88;;
75837;SDS011;64480;52.040;113.502;2023-05-07T02:34:49;11.05;;;6.43;;
75837;SDS011;64480;52.040;113.502;2023-05-07T02:37:54;11.95;;;7.00;;
75837;SDS011;64480;52.040;113.502;2023-05-07T02:40:59;13.93;;;8.68;;
75837;SDS011;64480;52.040;113.502;2023-05-07T02:44:02;10.25;;;6.47;;
75837;SDS011;64480;52.040;113.502;2023-05-07T02:47:10;16.17;;;6.90;;
75837;SDS011;64480;52.040;113.502;2023-05-07T02:50:22;17.35;;;6.82;;
75837;SDS011;64480;52.040;113.502;2023-05-07T02:53:40;14.88;;;6.50;;
75837;SDS011;64480;52.040;113.502;2023-05-07T02:56:44;22.58;;;6.57;;
75837;SDS011;64480;52.040;113.502;2023-05-07T02:59:59;18.50;;;7.38;;
75837;SDS011;64480;52.040;113.502;2023-05-07T03:06:58;9.57;;;5.55;;
75837;SDS011;64480;52.040;113.502;2023-05-07T03:10:03;15.63;;;5.85;;
75837;SDS011;64480;52.040;113.502;2023-05-07T03:13:11;13.68;;;6.22;;
75837;SDS011;64480;52.040;113.502;2023-05-07T03:16:16;29.23;;;7.38;;
75837;SDS011;64480;52.040;113.502;2023-05-07T03:19:24;21.33;;;6.78;;
75837;SDS011;64480;52.040;113.502;2023-05-07T03:25:58;16.40;;;7.35;;
75837;SDS011;64480;52.040;113.502;2023-05-07T03:29:03;17.25;;;7.25;;
75837;SDS011;64480;52.040;113.502;2023-05-07T03:32:07;23.08;;;7.22;;
75837;SDS011;64480;52.040;113.502;2023-05-07T03:35:12;16.90;;;7.30;;
75837;SDS011;64480;52.040;113.502;2023-05-07T03:38:15;16.70;;;7.13;;
75837;SDS011;64480;52.040;113.502;2023-05-07T03:41:23;23.23;;;7.13;;
75837;SDS011;64480;52.040;113.502;2023-05-07T03:44:31;26.23;;;6.97;;
75837;SDS011;64480;52.040;113.502;2023-05-07T03:47:35;16.42;;;6.70;;
75837;SDS011;64480;52.040;113.502;2023-05-07T03:50:43;22.38;;;7.72;;
75837;SDS011;64480;52.040;113.502;2023-05-07T03:53:52;16.77;;;7.03;;
75837;SDS011;64480;52.040;113.502;2023-05-07T03:57:00;8.57;;;6.50;;
75837;SDS011;64480;52.040;113.502;2023-05-07T04:04:06;28.77;;;6.60;;
75837;SDS011;64480;52.040;113.502;2023-05-07T04:07:10;13.70;;;6.43;;
75837;SDS011;64480;52.040;113.502;2023-05-07T04:10:18;16.02;;;6.05;;
75837;SDS011;64480;52.040;113.502;2023-05-07T04:13:24;24.85;;;7.25;;
75837;SDS011;64480;52.040;113.502;2023-05-07T04:16:28;8.55;;;5.20;;
75837;SDS011;64480;52.040;113.502;2023-05-07T04:19:41;16.00;;;6.70;;
75837;SDS011;64480;52.040;113.502;2023-05-07T04:22:49;12.52;;;5.38;;
75837;SDS011;64480;52.040;113.502;2023-05-07T04:26:04;22.48;;;5.78;;
75837;SDS011;64480;52.040;113.502;2023-05-07T04:32:38;17.27;;;6.43;;
75837;SDS011;64480;52.040;113.502;2023-05-07T04:35:41;11.13;;;4.45;;
75837;SDS011;64480;52.040;113.502;2023-05-07T04:38:45;22.83;;;5.32;;
75837;SDS011;64480;52.040;113.502;2023-05-07T04:41:49;18.20;;;5.28;;
75837;SDS011;64480;52.040;113.502;2023-05-07T04:44:55;14.23;;;6.28;;
75837;SDS011;64480;52.040;113.502;2023-05-07T04:48:09;8.75;;;4.55;;
75837;SDS011;64480;52.040;113.502;2023-05-07T04:51:18;13.93;;;5.75;;
75837;SDS011;64480;52.040;113.502;2023-05-07T04:54:22;13.60;;;4.32;;
75837;SDS011;64480;52.040;113.502;2023-05-07T04:57:26;17.42;;;4.88;;
75837;SDS011;64480;52.040;113.502;2023-05-07T05:03:41;30.05;;;5.32;;
75837;SDS011;64480;52.040;113.502;2023-05-07T05:06:47;29.33;;;5.72;;
75837;SDS011;64480;52.040;113.502;2023-05-07T05:09:52;28.08;;;5.57;;
75837;SDS011;64480;52.040;113.502;2023-05-07T05:13:01;20.95;;;4.43;;
75837;SDS011;64480;52.040;113.502;2023-05-07T05:16:08;13.90;;;3.38;;
75837;SDS011;64480;52.040;113.502;2023-05-07T05:19:13;41.28;;;5.80;;
75837;SDS011;64480;52.040;113.502;2023-05-07T05:22:18;26.90;;;4.47;;
75837;SDS011;64480;52.040;113.502;2023-05-07T05:25:26;14.38;;;3.45;;
75837;SDS011;64480;52.040;113.502;2023-05-07T05:28:31;20.15;;;3.47;;
75837;SDS011;64480;52.040;113.502;2023-05-07T05:31:36;29.48;;;4.25;;
75837;SDS011;64480;52.040;113.502;2023-05-07T05:34:59;37.28;;;5.80;;
75837;SDS011;64480;52.040;113.502;2023-05-07T05:41:05;20.92;;;3.63;;
75837;SDS011;64480;52.040;113.502;2023-05-07T05:44:12;23.08;;;3.75;;
75837;SDS011;64480;52.040;113.502;2023-05-07T05:47:17;19.88;;;4.20;;
75837;SDS011;64480;52.040;113.502;2023-05-07T05:50:25;35.90;;;4.53;;
75837;SDS011;64480;52.040;113.502;2023-05-07T05:53:30;27.92;;;4.78;;
75837;SDS011;64480;52.040;113.502;2023-05-07T05:56:36;37.63;;;5.18;;
75837;SDS011;64480;52.040;113.502;2023-05-07T05:59:41;22.90;;;5.18;;
75837;SDS011;64480;52.040;113.502;2023-05-07T06:02:48;38.08;;;6.38;;
75837;SDS011;64480;52.040;113.502;2023-05-07T06:05:59;15.25;;;3.30;;
75837;SDS011;64480;52.040;113.502;2023-05-07T06:09:06;23.42;;;3.63;;
75837;SDS011;64480;52.040;113.502;2023-05-07T06:12:14;12.05;;;2.22;;
75837;SDS011;64480;52.040;113.502;2023-05-07T06:15:27;15.95;;;3.35;;
75837;SDS011;64480;52.040;113.502;2023-05-07T06:18:38;12.30;;;3.80;;
75837;SDS011;64480;52.040;113.502;2023-05-07T06:21:44;19.67;;;3.45;;
75837;SDS011;64480;52.040;113.502;2023-05-07T06:24:49;22.55;;;4.13;;
75837;SDS011;64480;52.040;113.502;2023-05-07T06:27:58;11.02;;;3.88;;
75837;SDS011;64480;52.040;113.502;2023-05-07T06:31:19;16.98;;;3.45;;
75837;SDS011;64480;52.040;113.502;2023-05-07T06:34:35;18.75;;;3.90;;
75837;SDS011;64480;52.040;113.502;2023-05-07T06:37:53;24.52;;;3.35;;
75837;SDS011;64480;52.040;113.502;2023-05-07T06:41:05;20.15;;;4.13;;
75837;SDS011;64480;52.040;113.502;2023-05-07T06:44:12;34.42;;;4.55;;
75837;SDS011;64480;52.040;113.502;2023-05-07T06:47:22;17.58;;;3.10;;
75837;SDS011;64480;52.040;113.502;2023-05-07T06:50:28;22.88;;;3.55;;
75837;SDS011;64480;52.040;113.502;2023-05-07T06:53:35;17.42;;;3.22;;
75837;SDS011;64480;52.040;113.502;2023-05-07T06:56:39;14.43;;;3.50;;
75837;SDS011;64480;52.040;113.502;2023-05-07T06:59:49;39.53;;;3.67;;
75837;SDS011;64480;52.040;113.502;2023-05-07T07:02:58;13.73;;;2.05;;
75837;SDS011;64480;52.040;113.502;2023-05-07T07:06:05;9.10;;;2.15;;
75837;SDS011;64480;52.040;113.502;2023-05-07T07:09:10;15.65;;;2.20;;
75837;SDS011;64480;52.040;113.502;2023-05-07T07:12:14;46.20;;;4.53;;
75837;SDS011;64480;52.040;113.502;2023-05-07T07:15:23;20.95;;;3.30;;
75837;SDS011;64480;52.040;113.502;2023-05-07T07:18:37;16.50;;;3.05;;
75837;SDS011;64480;52.040;113.502;2023-05-07T07:21:57;15.57;;;3.60;;
75837;SDS011;64480;52.040;113.502;2023-05-07T07:25:01;23.85;;;2.40;;
75837;SDS011;64480;52.040;113.502;2023-05-07T07:28:05;17.27;;;1.63;;
75837;SDS011;64480;52.040;113.502;2023-05-07T07:31:12;13.98;;;2.22;;
75837;SDS011;64480;52.040;113.502;2023-05-07T07:34:27;38.55;;;3.80;;
75837;SDS011;64480;52.040;113.502;2023-05-07T07:37:37;26.27;;;2.97;;
75837;SDS011;64480;52.040;113.502;2023-05-07T07:40:49;15.50;;;2.72;;
75837;SDS011;64480;52.040;113.502;2023-05-07T07:44:04;49.95;;;5.70;;
75837;SDS011;64480;52.040;113.502;2023-05-07T07:47:24;19.90;;;2.40;;
75837;SDS011;64480;52.040;113.502;2023-05-07T07:50:28;30.38;;;3.80;;
75837;SDS011;64480;52.040;113.502;2023-05-07T07:53:47;43.45;;;5.45;;
75837;SDS011;64480;52.040;113.502;2023-05-07T07:56:52;14.90;;;2.38;;
75837;SDS011;64480;52.040;113.502;2023-05-07T07:59:57;20.38;;;2.33;;
75837;SDS011;64480;52.040;113.502;2023-05-07T08:03:01;16.90;;;1.85;;
75837;SDS011;64480;52.040;113.502;2023-05-07T08:06:13;15.57;;;2.25;;
75837;SDS011;64480;52.040;113.502;2023-05-07T08:09:16;16.85;;;2.70;;
75837;SDS011;64480;52.040;113.502;2023-05-07T08:15:53;26.23;;;2.80;;
75837;SDS011;64480;52.040;113.502;2023-05-07T08:18:57;8.15;;;2.17;;
75837;SDS011;64480;52.040;113.502;2023-05-07T08:22:00;14.52;;;3.08;;
75837;SDS011;64480;52.040;113.502;2023-05-07T08:25:05;32.67;;;9.23;;
75837;SDS011;64480;52.040;113.502;2023-05-07T08:28:09;11.18;;;1.88;;
75837;SDS011;64480;52.040;113.502;2023-05-07T08:31:13;9.27;;;1.88;;
75837;SDS011;64480;52.040;113.502;2023-05-07T08:34:19;18.00;;;3.08;;
75837;SDS011;64480;52.040;113.502;2023-05-07T08:37:24;13.13;;;2.55;;
75837;SDS011;64480;52.040;113.502;2023-05-07T08:40:27;18.58;;;4.85;;
75837;SDS011;64480;52.040;113.502;2023-05-07T08:43:33;8.23;;;2.63;;
75837;SDS011;64480;52.040;113.502;2023-05-07T08:46:41;9.45;;;2.63;;
75837;SDS011;64480;52.040;113.502;2023-05-07T08:49:46;13.50;;;2.63;;
75837;SDS011;64480;52.040;113.502;2023-05-07T08:52:51;10.10;;;1.95;;
75837;SDS011;64480;52.040;113.502;2023-05-07T08:55:56;8.32;;;1.70;;
75837;SDS011;64480;52.040;113.502;2023-05-07T08:59:03;12.23;;;1.83;;
75837;SDS011;64480;52.040;113.502;2023-05-07T09:02:07;22.35;;;2.38;;
75837;SDS011;64480;52.040;113.502;2023-05-07T09:05:14;10.80;;;1.80;;
75837;SDS011;64480;52.040;113.502;2023-05-07T09:08:17;5.70;;;1.20;;
75837;SDS011;64480;52.040;113.502;2023-05-07T09:11:22;38.40;;;3.08;;
75837;SDS011;64480;52.040;113.502;2023-05-07T09:14:28;9.95;;;3.08;;
75837;SDS011;64480;52.040;113.502;2023-05-07T09:17:33;10.38;;;3.00;;
75837;SDS011;64480;52.040;113.502;2023-05-07T09:20:37;89.32;;;7.90;;
75837;SDS011;64480;52.040;113.502;2023-05-07T09:23:42;33.67;;;3.10;;
75837;SDS011;64480;52.040;113.502;2023-05-07T09:26:51;13.75;;;1.42;;
75837;SDS011;64480;52.040;113.502;2023-05-07T09:29:55;11.23;;;1.38;;
75837;SDS011;64480;52.040;113.502;2023-05-07T09:32:59;25.00;;;2.45;;
75837;SDS011;64480;52.040;113.502;2023-05-07T09:36:08;12.80;;;1.80;;
75837;SDS011;64480;52.040;113.502;2023-05-07T09:39:15;15.68;;;5.38;;
75837;SDS011;64480;52.040;113.502;2023-05-07T09:42:23;18.25;;;7.75;;
75837;SDS011;64480;52.040;113.502;2023-05-07T09:45:34;29.58;;;6.45;;
75837;SDS011;64480;52.040;113.502;2023-05-07T09:48:47;21.20;;;5.72;;
75837;SDS011;64480;52.040;113.502;2023-05-07T09:51:52;24.50;;;3.25;;
75837;SDS011;64480;52.040;113.502;2023-05-07T09:54:59;12.82;;;1.20;;
75837;SDS011;64480;52.040;113.502;2023-05-07T09:58:04;6.97;;;2.08;;
75837;SDS011;64480;52.040;113.502;2023-05-07T10:01:17;9.35;;;1.33;;
75837;SDS011;64480;52.040;113.502;2023-05-07T10:04:27;10.38;;;1.55;;
75837;SDS011;64480;52.040;113.502;2023-05-07T10:07:32;7.55;;;1.35;;
75837;SDS011;64480;52.040;113.502;2023-05-07T10:10:44;12.45;;;1.63;;
75837;SDS011;64480;52.040;113.502;2023-05-07T10:13:52;8.82;;;1.83;;
75837;SDS011;64480;52.040;113.502;2023-05-07T10:17:02;13.95;;;1.55;;
75837;SDS011;64480;52.040;113.502;2023-05-07T10:20:10;8.32;;;1.10;;
75837;SDS011;64480;52.040;113.502;2023-05-07T10:23:19;6.50;;;1.27;;
75837;SDS011;64480;52.040;113.502;2023-05-07T10:26:32;3.20;;;0.73;;
75837;SDS011;64480;52.040;113.502;2023-05-07T10:33:13;8.32;;;1.90;;
75837;SDS011;64480;52.040;113.502;2023-05-07T10:36:19;4.72;;;1.23;;
75837;SDS011;64480;52.040;113.502;2023-05-07T10:39:27;8.00;;;1.42;;
75837;SDS011;64480;52.040;113.502;2023-05-07T10:42:36;2.92;;;0.82;;
75837;SDS011;64480;52.040;113.502;2023-05-07T10:45:40;2.13;;;0.95;;
75837;SDS011;64480;52.040;113.502;2023-05-07T10:52:26;7.22;;;1.63;;
75837;SDS011;64480;52.040;113.502;2023-05-07T10:55:41;5.18;;;1.55;;
75837;SDS011;64480;52.040;113.502;2023-05-07T10:58:50;4.45;;;1.35;;
75837;SDS011;64480;52.040;113.502;2023-05-07T11:02:02;5.20;;;1.13;;
75837;SDS011;64480;52.040;113.502;2023-05-07T11:05:32;5.10;;;1.48;;
75837;SDS011;64480;52.040;113.502;2023-05-07T11:15:46;5.43;;;1.52;;
75837;SDS011;64480;52.040;113.502;2023-05-07T11:19:09;6.72;;;1.52;;
75837;SDS011;64480;52.040;113.502;2023-05-07T11:22:51;7.53;;;2.17;;
75837;SDS011;64480;52.040;113.502;2023-05-07T11:26:08;4.35;;;1.00;;
75837;SDS011;64480;52.040;113.502;2023-05-07T11:29:15;9.68;;;1.55;;
75837;SDS011;64480;52.040;113.502;2023-05-07T11:32:32;5.38;;;1.52;;
75837;SDS011;64480;52.040;113.502;2023-05-07T11:35:36;3.42;;;0.90;;
75837;SDS011;64480;52.040;113.502;2023-05-07T11:38:42;4.18;;;1.38;;
75837;SDS011;64480;52.040;113.502;2023-05-07T11:41:46;5.57;;;1.42;;
75837;SDS011;64480;52.040;113.502;2023-05-07T11:44:49;7.30;;;1.42;;
75837;SDS011;64480;52.040;113.502;2023-05-07T11:47:52;8.93;;;1.33;;
75837;SDS011;64480;52.040;113.502;2023-05-07T11:54:05;4.35;;;1.80;;
75837;SDS011;64480;52.040;113.502;2023-05-07T11:57:14;5.95;;;2.40;;
75837;SDS011;64480;52.040;113.502;2023-05-07T12:00:22;4.88;;;1.67;;
75837;SDS011;64480;52.040;113.502;2023-05-07T12:03:25;4.25;;;1.42;;
75837;SDS011;64480;52.040;113.502;2023-05-07T12:06:35;4.40;;;1.90;;
75837;SDS011;64480;52.040;113.502;2023-05-07T12:09:40;3.28;;;1.80;;
75837;SDS011;64480;52.040;113.502;2023-05-07T12:12:49;7.80;;;2.08;;
75837;SDS011;64480;52.040;113.502;2023-05-07T12:15:57;6.65;;;2.40;;
75837;SDS011;64480;52.040;113.502;2023-05-07T12:19:00;3.95;;;1.58;;
75837;SDS011;64480;52.040;113.502;2023-05-07T12:22:04;5.70;;;1.80;;
75837;SDS011;64480;52.040;113.502;2023-05-07T12:25:18;4.22;;;1.80;;
75837;SDS011;64480;52.040;113.502;2023-05-07T12:28:22;3.58;;;0.98;;
75837;SDS011;64480;52.040;113.502;2023-05-07T12:31:26;4.13;;;1.52;;
75837;SDS011;64480;52.040;113.502;2023-05-07T12:34:30;8.25;;;3.22;;
75837;SDS011;64480;52.040;113.502;2023-05-07T12:37:34;5.88;;;2.05;;
75837;SDS011;64480;52.040;113.502;2023-05-07T12:40:39;5.30;;;2.05;;
75837;SDS011;64480;52.040;113.502;2023-05-07T12:43:45;9.38;;;2.80;;
75837;SDS011;64480;52.040;113.502;2023-05-07T12:46:49;7.47;;;2.92;;
75837;SDS011;64480;52.040;113.502;2023-05-07T12:49:54;7.60;;;2.80;;
75837;SDS011;64480;52.040;113.502;2023-05-07T12:52:57;5.47;;;2.88;;
75837;SDS011;64480;52.040;113.502;2023-05-07T12:56:00;12.00;;;3.47;;
75837;SDS011;64480;52.040;113.502;2023-05-07T12:59:04;18.58;;;4.97;;
75837;SDS011;64480;52.040;113.502;2023-05-07T13:02:17;13.63;;;4.93;;
75837;SDS011;64480;52.040;113.502;2023-05-07T13:05:21;11.65;;;4.15;;
75837;SDS011;64480;52.040;113.502;2023-05-07T13:08:25;11.70;;;3.80;;
75837;SDS011;64480;52.040;113.502;2023-05-07T13:11:34;10.98;;;5.20;;
75837;SDS011;64480;52.040;113.502;2023-05-07T13:14:37;14.55;;;4.97;;
75837;SDS011;64480;52.040;113.502;2023-05-07T13:17:41;10.35;;;4.22;;
75837;SDS011;64480;52.040;113.502;2023-05-07T13:20:44;6.43;;;2.50;;
75837;SDS011;64480;52.040;113.502;2023-05-07T13:23:48;6.53;;;2.08;;
75837;SDS011;64480;52.040;113.502;2023-05-07T13:26:51;8.27;;;1.60;;
75837;SDS011;64480;52.040;113.502;2023-05-07T13:29:56;5.40;;;1.83;;
75837;SDS011;64480;52.040;113.502;2023-05-07T13:33:00;5.07;;;1.55;;
75837;SDS011;64480;52.040;113.502;2023-05-07T13:36:10;5.15;;;1.52;;
75837;SDS011;64480;52.040;113.502;2023-05-07T13:39:13;5.53;;;1.45;;
75837;SDS011;64480;52.040;113.502;2023-05-07T13:42:17;10.95;;;1.52;;
75837;SDS011;64480;52.040;113.502;2023-05-07T13:45:20;3.17;;;1.10;;
75837;SDS011;64480;52.040;113.502;2023-05-07T13:48:24;3.25;;;1.33;;
75837;SDS011;64480;52.040;113.502;2023-05-07T13:51:27;3.97;;;1.42;;
75837;SDS011;64480;52.040;113.502;2023-05-07T13:54:31;3.67;;;0.93;;
75837;SDS011;64480;52.040;113.502;2023-05-07T13:57:34;2.60;;;1.02;;
75837;SDS011;64480;52.040;113.502;2023-05-07T14:00:37;7.72;;;1.40;;
75837;SDS011;64480;52.040;113.502;2023-05-07T14:03:44;4.00;;;1.42;;
75837;SDS011;64480;52.040;113.502;2023-05-07T14:06:48;3.90;;;1.50;;
75837;SDS011;64480;52.040;113.502;2023-05-07T14:09:51;3.95;;;1.55;;
75837;SDS011;64480;52.040;113.502;2023-05-07T14:12:58;4.57;;;1.48;;
75837;SDS011;64480;52.040;113.502;2023-05-07T14:16:03;4.60;;;1.63;;
75837;SDS011;64480;52.040;113.502;2023-05-07T14:19:07;9.35;;;3.35;;
75837;SDS011;64480;52.040;113.502;2023-05-07T14:22:10;7.03;;;3.67;;
75837;SDS011;64480;52.040;113.502;2023-05-07T14:25:16;6.60;;;2.92;;
75837;SDS011;64480;52.040;113.502;2023-05-07T14:28:24;7.95;;;3.95;;
75837;SDS011;64480;52.040;113.502;2023-05-07T14:31:28;9.93;;;3.80;;
75837;SDS011;64480;52.040;113.502;2023-05-07T14:34:32;12.77;;;4.70;;
75837;SDS011;64480;52.040;113.502;2023-05-07T14:37:35;15.13;;;5.55;;
75837;SDS011;64480;52.040;113.502;2023-05-07T14:40:38;11.55;;;3.65;;
75837;SDS011;64480;52.040;113.502;2023-05-07T14:43:42;9.93;;;4.00;;
75837;SDS011;64480;52.040;113.502;2023-05-07T14:46:46;13.25;;;3.75;;
75837;SDS011;64480;52.040;113.502;2023-05-07T14:49:50;10.02;;;3.03;;
75837;SDS011;64480;52.040;113.502;2023-05-07T14:52:54;8.18;;;2.70;;
75837;SDS011;64480;52.040;113.502;2023-05-07T14:56:00;8.23;;;3.33;;
75837;SDS011;64480;52.040;113.502;2023-05-07T14:59:04;7.38;;;2.75;;
75837;SDS011;64480;52.040;113.502;2023-05-07T15:02:08;6.15;;;2.80;;
75837;SDS011;64480;52.040;113.502;2023-05-07T15:05:13;9.30;;;3.72;;
75837;SDS011;64480;52.040;113.502;2023-05-07T15:08:17;8.02;;;3.35;;
75837;SDS011;64480;52.040;113.502;2023-05-07T15:11:21;6.03;;;2.78;;
75837;SDS011;64480;52.040;113.502;2023-05-07T15:14:24;5.15;;;2.67;;
75837;SDS011;64480;52.040;113.502;2023-05-07T15:17:28;8.95;;;2.55;;
75837;SDS011;64480;52.040;113.502;2023-05-07T15:20:33;6.30;;;2.63;;
75837;SDS011;64480;52.040;113.502;2023-05-07T15:23:39;5.68;;;2.42;;
75837;SDS011;64480;52.040;113.502;2023-05-07T15:26:43;7.35;;;2.80;;
75837;SDS011;64480;52.040;113.502;2023-05-07T15:29:47;6.70;;;2.38;;
75837;SDS011;64480;52.040;113.502;2023-05-07T15:32:50;6.57;;;2.88;;
75837;SDS011;64480;52.040;113.502;2023-05-07T15:35:54;7.85;;;2.88;;
75837;SDS011;64480;52.040;113.502;2023-05-07T15:39:01;7.93;;;2.55;;
75837;SDS011;64480;52.040;113.502;2023-05-07T15:42:05;8.63;;;2.55;;
75837;SDS011;64480;52.040;113.502;2023-05-07T15:45:09;7.18;;;2.38;;
75837;SDS011;64480;52.040;113.502;2023-05-07T15:48:13;8.88;;;2.75;;
75837;SDS011;64480;52.040;113.502;2023-05-07T15:51:17;8.57;;;3.25;;
75837;SDS011;64480;52.040;113.502;2023-05-07T15:54:22;13.05;;;3.65;;
75837;SDS011;64480;52.040;113.502;2023-05-07T15:57:25;6.47;;;2.33;;
75837;SDS011;64480;52.040;113.502;2023-05-07T16:00:29;9.55;;;2.92;;
75837;SDS011;64480;52.040;113.502;2023-05-07T16:03:32;7.70;;;2.25;;
75837;SDS011;64480;52.040;113.502;2023-05-07T16:06:36;10.25;;;2.95;;
75837;SDS011;64480;52.040;113.502;2023-05-07T16:09:39;5.88;;;2.38;;
75837;SDS011;64480;52.040;113.502;2023-05-07T16:12:43;8.73;;;3.00;;
75837;SDS011;64480;52.040;113.502;2023-05-07T16:15:46;6.63;;;2.67;;
75837;SDS011;64480;52.040;113.502;2023-05-07T16:18:49;13.73;;;3.83;;
75837;SDS011;64480;52.040;113.502;2023-05-07T16:21:53;9.82;;;3.38;;
75837;SDS011;64480;52.040;113.502;2023-05-07T16:24:56;12.70;;;4.13;;
75837;SDS011;64480;52.040;113.502;2023-05-07T16:27:59;14.68;;;3.95;;
75837;SDS011;64480;52.040;113.502;2023-05-07T16:31:03;8.93;;;3.72;;
75837;SDS011;64480;52.040;113.502;2023-05-07T16:34:06;13.93;;;4.85;;
75837;SDS011;64480;52.040;113.502;2023-05-07T16:37:09;9.18;;;3.58;;
75837;SDS011;64480;52.040;113.502;2023-05-07T16:40:13;11.88;;;3.17;;
75837;SDS011;64480;52.040;113.502;2023-05-07T16:43:17;9.55;;;2.75;;
75837;SDS011;64480;52.040;113.502;2023-05-07T16:46:20;11.38;;;2.67;;
75837;SDS011;64480;52.040;113.502;2023-05-07T16:49:23;8.10;;;2.53;;
75837;SDS011;64480;52.040;113.502;2023-05-07T16:52:28;9.90;;;3.17;;
75837;SDS011;64480;52.040;113.502;2023-05-07T16:55:32;12.40;;;3.92;;
75837;SDS011;64480;52.040;113.502;2023-05-07T16:58:40;9.27;;;4.03;;
75837;SDS011;64480;52.040;113.502;2023-05-07T17:01:43;8.95;;;3.65;;
75837;SDS011;64480;52.040;113.502;2023-05-07T17:04:47;11.02;;;3.38;;
75837;SDS011;64480;52.040;113.502;2023-05-07T17:07:50;13.05;;;3.60;;
75837;SDS011;64480;52.040;113.502;2023-05-07T17:10:54;13.80;;;4.05;;
75837;SDS011;64480;52.040;113.502;2023-05-07T17:13:57;14.40;;;4.97;;
75837;SDS011;64480;52.040;113.502;2023-05-07T17:17:00;18.05;;;5.88;;
75837;SDS011;64480;52.040;113.502;2023-05-07T17:20:04;14.27;;;5.60;;
75837;SDS011;64480;52.040;113.502;2023-05-07T17:23:08;14.25;;;5.25;;
75837;SDS011;64480;52.040;113.502;2023-05-07T17:26:12;16.50;;;5.60;;
75837;SDS011;64480;52.040;113.502;2023-05-07T17:29:15;17.23;;;7.10;;
75837;SDS011;64480;52.040;113.502;2023-05-07T17:32:20;21.33;;;8.20;;
75837;SDS011;64480;52.040;113.502;2023-05-07T17:35:24;21.55;;;7.53;;
75837;SDS011;64480;52.040;113.502;2023-05-07T17:38:29;16.45;;;7.75;;
75837;SDS011;64480;52.040;113.502;2023-05-07T17:41:34;24.20;;;9.57;;
75837;SDS011;64480;52.040;113.502;2023-05-07T17:44:38;21.67;;;7.97;;
75837;SDS011;64480;52.040;113.502;2023-05-07T17:47:42;19.67;;;8.20;;
75837;SDS011;64480;52.040;113.502;2023-05-07T17:50:45;22.10;;;7.85;;
75837;SDS011;64480;52.040;113.502;2023-05-07T17:53:49;17.52;;;6.68;;
75837;SDS011;64480;52.040;113.502;2023-05-07T17:56:52;22.25;;;7.93;;
75837;SDS011;64480;52.040;113.502;2023-05-07T17:59:59;15.68;;;6.07;;
75837;SDS011;64480;52.040;113.502;2023-05-07T18:03:06;13.73;;;5.65;;
75837;SDS011;64480;52.040;113.502;2023-05-07T18:06:09;10.10;;;3.85;;
75837;SDS011;64480;52.040;113.502;2023-05-07T18:09:13;12.48;;;4.22;;
75837;SDS011;64480;52.040;113.502;2023-05-07T18:12:16;13.05;;;3.55;;
75837;SDS011;64480;52.040;113.502;2023-05-07T18:15:20;16.45;;;4.78;;
75837;SDS011;64480;52.040;113.502;2023-05-07T18:18:23;13.18;;;4.60;;
75837;SDS011;64480;52.040;113.502;2023-05-07T18:21:29;11.05;;;4.18;;
75837;SDS011;64480;52.040;113.502;2023-05-07T18:24:33;9.65;;;3.33;;
75837;SDS011;64480;52.040;113.502;2023-05-07T18:27:36;12.70;;;4.18;;
75837;SDS011;64480;52.040;113.502;2023-05-07T18:30:39;10.15;;;3.35;;
75837;SDS011;64480;52.040;113.502;2023-05-07T18:33:43;9.50;;;3.03;;
75837;SDS011;64480;52.040;113.502;2023-05-07T18:36:46;10.43;;;3.35;;
75837;SDS011;64480;52.040;113.502;2023-05-07T18:39:50;12.70;;;3.40;;
75837;SDS011;64480;52.040;113.502;2023-05-07T18:42:53;8.02;;;3.38;;
75837;SDS011;64480;52.040;113.502;2023-05-07T18:45:57;9.63;;;2.22;;